sensor_id;sensor_type;location;lat;lon;timestamp;pressure;altitude;pressure_sealevel;temperature;humidity
43125;BME280;49182;50.788;7.318;2022-12-18T00:01:19;102215.88;;;-10.80;83.53
43125;BME280;49182;50.788;7.318;2022-12-18T00:03:47;102213.19;;;-10.85;83.66
43125;BME280;49182;50.788;7.318;2022-12-18T00:06:15;102211.59;;;-10.81;83.63
43125;BME280;49182;50.788;7.318;2022-12-18T00:08:42;102203.94;;;-10.80;83.61
43125;BME280;49182;50.788;7.318;2022-12-18T00:11:12;102189.19;;;-10.93;83.59
43125;BME280;49182;50.788;7.318;2022-12-18T00:13:38;102122.72;;;-11.33;83.06
43125;BME280;49182;50.788;7.318;2022-12-18T00:16:09;102205.66;;;-10.80;83.13
43125;BME280;49182;50.788;7.318;2022-12-18T00:18:37;102203.22;;;-10.76;82.96
43125;BME280;49182;50.788;7.318;2022-12-18T00:21:06;102204.09;;;-10.74;83.24
43125;BME280;49182;50.788;7.318;2022-12-18T00:23:34;102209.19;;;-10.74;83.47
43125;BME280;49182;50.788;7.318;2022-12-18T00:26:03;102206.47;;;-10.81;83.57
43125;BME280;49182;50.788;7.318;2022-12-18T00:28:30;102195.97;;;-10.93;83.92
43125;BME280;49182;50.788;7.318;2022-12-18T00:31:00;102193.28;;;-10.98;84.05
43125;BME280;49182;50.788;7.318;2022-12-18T00:33:28;102210.72;;;-10.82;84.07
43125;BME280;49182;50.788;7.318;2022-12-18T00:36:00;102222.59;;;-10.82;83.51
43125;BME280;49182;50.788;7.318;2022-12-18T00:38:27;102225.94;;;-10.85;83.33
43125;BME280;49182;50.788;7.318;2022-12-18T00:40:53;102225.94;;;-10.85;82.47
43125;BME280;49182;50.788;7.318;2022-12-18T00:43:20;102207.91;;;-10.92;82.92
43125;BME280;49182;50.788;7.318;2022-12-18T00:45:46;102218.22;;;-10.88;83.17
43125;BME280;49182;50.788;7.318;2022-12-18T00:48:13;102218.13;;;-10.91;83.55
43125;BME280;49182;50.788;7.318;2022-12-18T00:50:41;102220.56;;;-10.95;83.85
43125;BME280;49182;50.788;7.318;2022-12-18T00:53:08;102182.41;;;-11.25;83.76
43125;BME280;49182;50.788;7.318;2022-12-18T00:55:34;102216.94;;;-11.03;84.10
43125;BME280;49182;50.788;7.318;2022-12-18T00:58:01;102175.63;;;-11.25;83.53
43125;BME280;49182;50.788;7.318;2022-12-18T01:00:28;102212.81;;;-11.00;83.65
43125;BME280;49182;50.788;7.318;2022-12-18T01:02:54;102216.22;;;-10.99;83.06
43125;BME280;49182;50.788;7.318;2022-12-18T01:05:21;102210.06;;;-11.08;82.94
43125;BME280;49182;50.788;7.318;2022-12-18T01:07:49;102200.78;;;-11.04;83.02
43125;BME280;49182;50.788;7.318;2022-12-18T01:10:16;102200.78;;;-11.06;82.88
43125;BME280;49182;50.788;7.318;2022-12-18T01:12:43;102165.38;;;-11.26;82.78
43125;BME280;49182;50.788;7.318;2022-12-18T01:15:11;102202.41;;;-11.08;82.83
43125;BME280;49182;50.788;7.318;2022-12-18T01:17:38;102207.34;;;-11.14;82.78
43125;BME280;49182;50.788;7.318;2022-12-18T01:20:06;102191.84;;;-11.21;82.84
43125;BME280;49182;50.788;7.318;2022-12-18T01:22:33;102206.38;;;-11.19;82.89
43125;BME280;49182;50.788;7.318;2022-12-18T01:25:02;102198.41;;;-11.31;83.19
43125;BME280;49182;50.788;7.318;2022-12-18T01:27:30;102211.19;;;-11.28;83.61
43125;BME280;49182;50.788;7.318;2022-12-18T01:29:57;102220.75;;;-11.21;83.77
43125;BME280;49182;50.788;7.318;2022-12-18T01:32:24;102203.72;;;-11.22;84.18
43125;BME280;49182;50.788;7.318;2022-12-18T01:34:51;102158.81;;;-11.50;84.13
43125;BME280;49182;50.788;7.318;2022-12-18T01:37:18;102171.59;;;-11.48;83.74
43125;BME280;49182;50.788;7.318;2022-12-18T01:39:45;102194.88;;;-11.36;83.73
43125;BME280;49182;50.788;7.318;2022-12-18T01:42:14;102209.34;;;-11.33;83.69
43125;BME280;49182;50.788;7.318;2022-12-18T01:44:54;102188.69;;;-11.44;83.37
43125;BME280;49182;50.788;7.318;2022-12-18T01:47:24;102209.47;;;-11.30;83.30
43125;BME280;49182;50.788;7.318;2022-12-18T01:49:52;102206.91;;;-11.30;82.64
43125;BME280;49182;50.788;7.318;2022-12-18T01:52:20;102205.06;;;-11.36;82.67
43125;BME280;49182;50.788;7.318;2022-12-18T01:54:49;102201.50;;;-11.41;82.68
43125;BME280;49182;50.788;7.318;2022-12-18T01:57:19;102207.34;;;-11.45;82.88
43125;BME280;49182;50.788;7.318;2022-12-18T01:59:49;102210.88;;;-11.40;82.48
43125;BME280;49182;50.788;7.318;2022-12-18T02:02:18;102201.47;;;-11.42;82.60
43125;BME280;49182;50.788;7.318;2022-12-18T02:04:45;102195.38;;;-11.48;82.68
43125;BME280;49182;50.788;7.318;2022-12-18T02:07:22;102180.03;;;-11.51;82.51
43125;BME280;49182;50.788;7.318;2022-12-18T02:09:57;102193.66;;;-11.49;82.43
43125;BME280;49182;50.788;7.318;2022-12-18T02:12:30;102192.59;;;-11.57;82.58
43125;BME280;49182;50.788;7.318;2022-12-18T02:15:06;102197.56;;;-11.61;82.52
43125;BME280;49182;50.788;7.318;2022-12-18T02:17:40;102198.50;;;-11.58;82.63
43125;BME280;49182;50.788;7.318;2022-12-18T02:20:14;102202.84;;;-11.54;82.20
43125;BME280;49182;50.788;7.318;2022-12-18T02:22:50;102174.41;;;-11.69;82.22
43125;BME280;49182;50.788;7.318;2022-12-18T02:25:35;102173.31;;;-11.78;82.20
43125;BME280;49182;50.788;7.318;2022-12-18T02:28:10;102210.13;;;-11.66;82.38
43125;BME280;49182;50.788;7.318;2022-12-18T02:30:39;102208.47;;;-11.65;82.21
43125;BME280;49182;50.788;7.318;2022-12-18T02:33:08;102213.50;;;-11.68;82.52
43125;BME280;49182;50.788;7.318;2022-12-18T02:35:38;102207.44;;;-11.72;82.54
43125;BME280;49182;50.788;7.318;2022-12-18T02:38:07;102209.97;;;-11.72;82.31
43125;BME280;49182;50.788;7.318;2022-12-18T02:40:36;102209.88;;;-11.76;82.46
43125;BME280;49182;50.788;7.318;2022-12-18T02:43:09;102227.63;;;-11.79;82.51
43125;BME280;49182;50.788;7.318;2022-12-18T02:45:37;102224.22;;;-11.80;82.56
43125;BME280;49182;50.788;7.318;2022-12-18T02:48:12;102191.72;;;-11.89;82.23
43125;BME280;49182;50.788;7.318;2022-12-18T02:50:45;102202.19;;;-11.78;82.47
43125;BME280;49182;50.788;7.318;2022-12-18T02:53:24;102203.81;;;-11.81;81.89
43125;BME280;49182;50.788;7.318;2022-12-18T02:55:58;102206.91;;;-11.92;82.09
43125;BME280;49182;50.788;7.318;2022-12-18T02:58:31;102208.41;;;-11.98;82.00
43125;BME280;49182;50.788;7.318;2022-12-18T03:01:10;102188.50;;;-12.11;82.54
43125;BME280;49182;50.788;7.318;2022-12-18T03:03:44;102203.16;;;-12.03;82.60
43125;BME280;49182;50.788;7.318;2022-12-18T03:06:20;102202.41;;;-12.00;82.71
43125;BME280;49182;50.788;7.318;2022-12-18T03:08:51;102200.78;;;-11.97;82.97
43125;BME280;49182;50.788;7.318;2022-12-18T03:11:20;102192.28;;;-11.99;83.04
43125;BME280;49182;50.788;7.318;2022-12-18T03:13:54;102193.09;;;-12.00;83.02
43125;BME280;49182;50.788;7.318;2022-12-18T03:16:25;102157.50;;;-12.26;82.95
43125;BME280;49182;50.788;7.318;2022-12-18T03:18:55;102192.97;;;-12.03;82.84
43125;BME280;49182;50.788;7.318;2022-12-18T03:21:28;102174.78;;;-12.16;82.89
43125;BME280;49182;50.788;7.318;2022-12-18T03:23:55;102178.50;;;-12.05;82.86
43125;BME280;49182;50.788;7.318;2022-12-18T03:26:26;102195.81;;;-11.94;82.34
43125;BME280;49182;50.788;7.318;2022-12-18T03:29:02;102189.16;;;-11.89;81.78
43125;BME280;49182;50.788;7.318;2022-12-18T03:31:32;102184.72;;;-11.96;81.93
43125;BME280;49182;50.788;7.318;2022-12-18T03:34:01;102177.88;;;-11.98;81.99
43125;BME280;49182;50.788;7.318;2022-12-18T03:36:39;102165.66;;;-12.10;82.11
43125;BME280;49182;50.788;7.318;2022-12-18T03:39:06;102173.47;;;-12.04;81.92
43125;BME280;49182;50.788;7.318;2022-12-18T03:41:42;102173.53;;;-12.01;81.57
43125;BME280;49182;50.788;7.318;2022-12-18T03:44:27;102176.91;;;-12.02;81.41
43125;BME280;49182;50.788;7.318;2022-12-18T03:47:00;102172.59;;;-12.04;81.70
43125;BME280;49182;50.788;7.318;2022-12-18T03:49:34;102138.00;;;-12.26;82.21
43125;BME280;49182;50.788;7.318;2022-12-18T03:52:06;102168.00;;;-12.16;82.40
43125;BME280;49182;50.788;7.318;2022-12-18T03:54:34;102164.59;;;-12.16;82.69
43125;BME280;49182;50.788;7.318;2022-12-18T03:57:12;102159.47;;;-12.18;82.87
43125;BME280;49182;50.788;7.318;2022-12-18T03:59:43;102157.84;;;-12.16;82.91
43125;BME280;49182;50.788;7.318;2022-12-18T04:02:14;102152.69;;;-12.17;82.95
43125;BME280;49182;50.788;7.318;2022-12-18T04:04:43;102122.47;;;-12.35;82.82
43125;BME280;49182;50.788;7.318;2022-12-18T04:07:12;102143.28;;;-12.20;82.97
43125;BME280;49182;50.788;7.318;2022-12-18T04:09:43;102100.94;;;-12.46;83.11
43125;BME280;49182;50.788;7.318;2022-12-18T04:12:12;102147.56;;;-12.19;82.83
43125;BME280;49182;50.788;7.318;2022-12-18T04:14:39;102145.22;;;-12.11;82.69
43125;BME280;49182;50.788;7.318;2022-12-18T04:17:09;102141.81;;;-12.12;82.23
43125;BME280;49182;50.788;7.318;2022-12-18T04:19:36;102148.66;;;-12.11;81.92
43125;BME280;49182;50.788;7.318;2022-12-18T04:22:03;102161.38;;;-12.11;81.97
43125;BME280;49182;50.788;7.318;2022-12-18T04:24:36;102153.44;;;-12.20;81.87
43125;BME280;49182;50.788;7.318;2022-12-18T04:27:14;102157.66;;;-12.22;82.05
43125;BME280;49182;50.788;7.318;2022-12-18T04:29:45;102152.41;;;-12.26;82.06
43125;BME280;49182;50.788;7.318;2022-12-18T04:32:14;102152.38;;;-12.28;82.01
43125;BME280;49182;50.788;7.318;2022-12-18T04:34:43;102160.72;;;-12.32;82.05
43125;BME280;49182;50.788;7.318;2022-12-18T04:37:09;102157.41;;;-12.30;81.91
43125;BME280;49182;50.788;7.318;2022-12-18T04:39:36;102154.13;;;-12.25;82.07
43125;BME280;49182;50.788;7.318;2022-12-18T04:42:08;102104.81;;;-12.59;81.97
43125;BME280;49182;50.788;7.318;2022-12-18T04:44:36;102147.09;;;-12.34;81.71
43125;BME280;49182;50.788;7.318;2022-12-18T04:47:02;102153.09;;;-12.32;82.14
43125;BME280;49182;50.788;7.318;2022-12-18T04:49:30;102131.44;;;-12.48;82.36
43125;BME280;49182;50.788;7.318;2022-12-18T04:51:57;102149.59;;;-12.36;82.16
43125;BME280;49182;50.788;7.318;2022-12-18T04:54:24;102146.09;;;-12.39;82.51
43125;BME280;49182;50.788;7.318;2022-12-18T04:56:50;102146.88;;;-12.42;82.25
43125;BME280;49182;50.788;7.318;2022-12-18T04:59:17;102158.63;;;-12.45;82.27
43125;BME280;49182;50.788;7.318;2022-12-18T05:01:43;102156.88;;;-12.46;82.29
43125;BME280;49182;50.788;7.318;2022-12-18T05:04:10;102150.13;;;-12.46;82.37
43125;BME280;49182;50.788;7.318;2022-12-18T05:06:38;102136.53;;;-12.48;82.37
43125;BME280;49182;50.788;7.318;2022-12-18T05:09:04;102140.75;;;-12.48;82.12
43125;BME280;49182;50.788;7.318;2022-12-18T05:11:31;102147.69;;;-12.43;82.30
43125;BME280;49182;50.788;7.318;2022-12-18T05:13:58;102143.69;;;-12.35;82.53
43125;BME280;49182;50.788;7.318;2022-12-18T05:16:24;102146.25;;;-12.33;82.23
43125;BME280;49182;50.788;7.318;2022-12-18T05:18:51;102126.41;;;-12.45;82.05
43125;BME280;49182;50.788;7.318;2022-12-18T05:21:17;102140.25;;;-12.37;82.00
43125;BME280;49182;50.788;7.318;2022-12-18T05:23:45;102138.63;;;-12.35;82.03
43125;BME280;49182;50.788;7.318;2022-12-18T05:26:15;102114.75;;;-12.38;81.92
43125;BME280;49182;50.788;7.318;2022-12-18T05:28:43;102125.03;;;-12.35;82.07
43125;BME280;49182;50.788;7.318;2022-12-18T05:31:10;102121.84;;;-12.28;81.74
43125;BME280;49182;50.788;7.318;2022-12-18T05:33:37;102118.97;;;-12.39;81.63
43125;BME280;49182;50.788;7.318;2022-12-18T05:36:06;102122.56;;;-12.32;81.72
43125;BME280;49182;50.788;7.318;2022-12-18T05:38:34;102128.28;;;-12.39;82.08
43125;BME280;49182;50.788;7.318;2022-12-18T05:41:04;102105.94;;;-12.49;82.07
43125;BME280;49182;50.788;7.318;2022-12-18T05:43:31;102114.31;;;-12.53;82.39
43125;BME280;49182;50.788;7.318;2022-12-18T05:46:03;102126.41;;;-12.45;82.18
43125;BME280;49182;50.788;7.318;2022-12-18T05:48:30;102123.00;;;-12.45;82.42
43125;BME280;49182;50.788;7.318;2022-12-18T05:51:03;102098.88;;;-12.59;82.73
43125;BME280;49182;50.788;7.318;2022-12-18T05:53:30;102098.56;;;-12.68;82.16
43125;BME280;49182;50.788;7.318;2022-12-18T05:55:59;102130.44;;;-12.53;82.53
43125;BME280;49182;50.788;7.318;2022-12-18T05:58:28;102136.34;;;-12.52;82.54
43125;BME280;49182;50.788;7.318;2022-12-18T06:00:54;102145.81;;;-12.48;82.26
43125;BME280;49182;50.788;7.318;2022-12-18T06:03:21;102144.09;;;-12.49;82.30
43125;BME280;49182;50.788;7.318;2022-12-18T06:05:48;102143.16;;;-12.51;82.66
43125;BME280;49182;50.788;7.318;2022-12-18T06:08:14;102151.59;;;-12.54;82.77
43125;BME280;49182;50.788;7.318;2022-12-18T06:10:41;102155.69;;;-12.57;82.56
43125;BME280;49182;50.788;7.318;2022-12-18T06:13:08;102165.13;;;-12.55;82.53
43125;BME280;49182;50.788;7.318;2022-12-18T06:15:37;102159.97;;;-12.56;82.53
43125;BME280;49182;50.788;7.318;2022-12-18T06:18:04;102162.63;;;-12.53;81.94
43125;BME280;49182;50.788;7.318;2022-12-18T06:20:30;102181.50;;;-12.45;82.24
43125;BME280;49182;50.788;7.318;2022-12-18T06:22:59;102183.25;;;-12.44;82.19
43125;BME280;49182;50.788;7.318;2022-12-18T06:25:26;102183.16;;;-12.47;82.47
43125;BME280;49182;50.788;7.318;2022-12-18T06:27:52;102178.97;;;-12.45;82.27
43125;BME280;49182;50.788;7.318;2022-12-18T06:30:19;102185.84;;;-12.43;82.15
43125;BME280;49182;50.788;7.318;2022-12-18T06:32:49;102186.66;;;-12.44;81.90
43125;BME280;49182;50.788;7.318;2022-12-18T06:35:22;102193.53;;;-12.41;82.02
43125;BME280;49182;50.788;7.318;2022-12-18T06:37:49;102193.56;;;-12.40;82.35
43125;BME280;49182;50.788;7.318;2022-12-18T06:40:16;102186.78;;;-12.39;82.33
43125;BME280;49182;50.788;7.318;2022-12-18T06:42:43;102003.84;;;-13.46;82.15
43125;BME280;49182;50.788;7.318;2022-12-18T06:45:10;102189.25;;;-12.42;82.05
43125;BME280;49182;50.788;7.318;2022-12-18T06:47:36;102187.56;;;-12.42;82.03
43125;BME280;49182;50.788;7.318;2022-12-18T06:50:05;102185.03;;;-12.42;81.87
43125;BME280;49182;50.788;7.318;2022-12-18T06:52:32;102177.22;;;-12.48;81.79
43125;BME280;49182;50.788;7.318;2022-12-18T06:54:59;102164.31;;;-12.52;81.96
43125;BME280;49182;50.788;7.318;2022-12-18T06:57:25;102161.78;;;-12.52;81.96
43125;BME280;49182;50.788;7.318;2022-12-18T06:59:52;102145.25;;;-12.66;82.18
43125;BME280;49182;50.788;7.318;2022-12-18T07:02:18;102169.38;;;-12.54;82.62
43125;BME280;49182;50.788;7.318;2022-12-18T07:04:45;102156.69;;;-12.52;82.43
43125;BME280;49182;50.788;7.318;2022-12-18T07:07:13;102154.84;;;-12.58;82.53
43125;BME280;49182;50.788;7.318;2022-12-18T07:09:39;102159.22;;;-12.54;82.13
43125;BME280;49182;50.788;7.318;2022-12-18T07:12:06;102166.69;;;-12.58;82.19
43125;BME280;49182;50.788;7.318;2022-12-18T07:14:33;102176.97;;;-12.55;82.38
43125;BME280;49182;50.788;7.318;2022-12-18T07:16:59;102176.03;;;-12.57;82.14
43125;BME280;49182;50.788;7.318;2022-12-18T07:19:27;102176.16;;;-12.54;82.36
43125;BME280;49182;50.788;7.318;2022-12-18T07:21:54;102177.03;;;-12.54;82.18
43125;BME280;49182;50.788;7.318;2022-12-18T07:24:22;102187.19;;;-12.54;82.45
43125;BME280;49182;50.788;7.318;2022-12-18T07:26:49;102195.63;;;-12.55;82.47
43125;BME280;49182;50.788;7.318;2022-12-18T07:29:15;102198.31;;;-12.50;82.47
43125;BME280;49182;50.788;7.318;2022-12-18T07:31:42;102195.72;;;-12.52;82.18
43125;BME280;49182;50.788;7.318;2022-12-18T07:34:10;102196.75;;;-12.47;82.02
43125;BME280;49182;50.788;7.318;2022-12-18T07:36:37;102198.44;;;-12.47;82.27
43125;BME280;49182;50.788;7.318;2022-12-18T07:39:03;102194.09;;;-12.50;82.50
43125;BME280;49182;50.788;7.318;2022-12-18T07:41:31;102182.81;;;-12.58;82.73
43125;BME280;49182;50.788;7.318;2022-12-18T07:44:09;102189.94;;;-12.48;82.47
43125;BME280;49182;50.788;7.318;2022-12-18T07:46:35;102185.78;;;-12.44;82.42
43125;BME280;49182;50.788;7.318;2022-12-18T07:49:02;102181.69;;;-12.41;81.93
43125;BME280;49182;50.788;7.318;2022-12-18T07:51:31;102181.00;;;-12.35;81.67
43125;BME280;49182;50.788;7.318;2022-12-18T07:53:58;102176.78;;;-12.35;81.78
43125;BME280;49182;50.788;7.318;2022-12-18T07:56:24;102177.53;;;-12.37;81.79
43125;BME280;49182;50.788;7.318;2022-12-18T07:58:55;102173.25;;;-12.38;81.19
43125;BME280;49182;50.788;7.318;2022-12-18T08:01:22;102174.31;;;-12.32;81.17
43125;BME280;49182;50.788;7.318;2022-12-18T08:03:49;102162.22;;;-12.39;80.97
43125;BME280;49182;50.788;7.318;2022-12-18T08:06:18;102173.31;;;-12.37;81.40
43125;BME280;49182;50.788;7.318;2022-12-18T08:08:48;102166.53;;;-12.36;81.94
43125;BME280;49182;50.788;7.318;2022-12-18T08:11:15;102165.09;;;-12.28;82.01
43125;BME280;49182;50.788;7.318;2022-12-18T08:13:41;102161.00;;;-12.23;82.23
43125;BME280;49182;50.788;7.318;2022-12-18T08:16:10;102151.78;;;-12.19;82.65
43125;BME280;49182;50.788;7.318;2022-12-18T08:18:37;102142.63;;;-12.13;82.48
43125;BME280;49182;50.788;7.318;2022-12-18T08:21:10;102127.47;;;-12.10;82.15
43125;BME280;49182;50.788;7.318;2022-12-18T08:23:37;102100.88;;;-12.19;82.12
43125;BME280;49182;50.788;7.318;2022-12-18T08:26:09;102119.31;;;-11.98;81.46
43125;BME280;49182;50.788;7.318;2022-12-18T08:28:35;102119.28;;;-12.00;81.51
43125;BME280;49182;50.788;7.318;2022-12-18T08:31:02;102109.03;;;-12.01;81.45
43125;BME280;49182;50.788;7.318;2022-12-18T08:33:30;102112.44;;;-12.01;81.64
43125;BME280;49182;50.788;7.318;2022-12-18T08:35:58;102104.00;;;-12.00;81.69
43125;BME280;49182;50.788;7.318;2022-12-18T08:38:25;102113.59;;;-11.90;81.72
43125;BME280;49182;50.788;7.318;2022-12-18T08:40:58;102110.34;;;-11.85;82.08
43125;BME280;49182;50.788;7.318;2022-12-18T08:43:24;102052.09;;;-12.05;82.39
43125;BME280;49182;50.788;7.318;2022-12-18T08:45:51;102089.13;;;-11.84;82.71
43125;BME280;49182;50.788;7.318;2022-12-18T08:48:18;102094.50;;;-11.72;82.68
43125;BME280;49182;50.788;7.318;2022-12-18T08:50:55;102114.16;;;-11.68;82.43
43125;BME280;49182;50.788;7.318;2022-12-18T08:53:21;102119.38;;;-11.64;82.75
43125;BME280;49182;50.788;7.318;2022-12-18T08:55:49;102114.44;;;-11.58;82.72
43125;BME280;49182;50.788;7.318;2022-12-18T08:58:16;102112.91;;;-11.51;82.73
43125;BME280;49182;50.788;7.318;2022-12-18T09:00:42;102118.22;;;-11.43;82.68
43125;BME280;49182;50.788;7.318;2022-12-18T09:03:11;102119.31;;;-11.34;82.89
43125;BME280;49182;50.788;7.318;2022-12-18T09:05:38;102115.28;;;-11.26;82.92
43125;BME280;49182;50.788;7.318;2022-12-18T09:08:06;102082.03;;;-11.30;82.97
43125;BME280;49182;50.788;7.318;2022-12-18T09:10:33;102105.91;;;-10.92;82.58
43125;BME280;49182;50.788;7.318;2022-12-18T09:13:07;102100.34;;;-10.76;82.28
43125;BME280;49182;50.788;7.318;2022-12-18T09:15:33;102084.94;;;-10.81;82.38
43125;BME280;49182;50.788;7.318;2022-12-18T09:18:00;102098.09;;;-10.62;82.01
43125;BME280;49182;50.788;7.318;2022-12-18T09:20:26;102099.81;;;-10.61;82.10
43125;BME280;49182;50.788;7.318;2022-12-18T09:22:53;102105.16;;;-10.51;82.15
43125;BME280;49182;50.788;7.318;2022-12-18T09:25:21;102104.38;;;-10.47;82.38
43125;BME280;49182;50.788;7.318;2022-12-18T09:27:48;102059.69;;;-10.69;82.78
43125;BME280;49182;50.788;7.318;2022-12-18T09:30:15;102098.03;;;-10.27;82.43
43125;BME280;49182;50.788;7.318;2022-12-18T09:32:42;102097.38;;;-10.16;82.93
43125;BME280;49182;50.788;7.318;2022-12-18T09:35:08;102100.03;;;-10.10;82.73
43125;BME280;49182;50.788;7.318;2022-12-18T09:37:35;102091.81;;;-9.96;83.03
43125;BME280;49182;50.788;7.318;2022-12-18T09:40:02;102074.84;;;-9.92;83.48
43125;BME280;49182;50.788;7.318;2022-12-18T09:42:30;102070.78;;;-9.83;83.47
43125;BME280;49182;50.788;7.318;2022-12-18T09:44:58;102075.38;;;-9.65;83.36
43125;BME280;49182;50.788;7.318;2022-12-18T09:47:29;102075.56;;;-9.54;83.63
43125;BME280;49182;50.788;7.318;2022-12-18T09:49:59;102061.16;;;-9.49;83.80
43125;BME280;49182;50.788;7.318;2022-12-18T09:52:32;102070.06;;;-9.27;84.35
43125;BME280;49182;50.788;7.318;2022-12-18T09:55:04;102045.47;;;-9.21;84.93
43125;BME280;49182;50.788;7.318;2022-12-18T09:57:33;102065.59;;;-8.86;87.01
43125;BME280;49182;50.788;7.318;2022-12-18T10:00:09;102064.22;;;-8.65;88.00
43125;BME280;49182;50.788;7.318;2022-12-18T10:02:37;102050.94;;;-8.36;87.39
43125;BME280;49182;50.788;7.318;2022-12-18T10:05:06;102048.59;;;-8.17;86.60
43125;BME280;49182;50.788;7.318;2022-12-18T10:07:52;102050.47;;;-8.03;87.81
43125;BME280;49182;50.788;7.318;2022-12-18T10:10:30;102032.78;;;-7.79;88.43
43125;BME280;49182;50.788;7.318;2022-12-18T10:13:09;102018.50;;;-7.53;90.06
43125;BME280;49182;50.788;7.318;2022-12-18T10:15:52;102027.47;;;-7.04;91.32
43125;BME280;49182;50.788;7.318;2022-12-18T10:18:32;102037.13;;;-6.63;90.85
43125;BME280;49182;50.788;7.318;2022-12-18T10:21:05;102033.00;;;-6.23;91.54
43125;BME280;49182;50.788;7.318;2022-12-18T10:23:40;102021.97;;;-5.86;90.96
43125;BME280;49182;50.788;7.318;2022-12-18T10:26:14;102021.19;;;-5.22;89.87
43125;BME280;49182;50.788;7.318;2022-12-18T10:28:43;102021.16;;;-4.89;87.53
43125;BME280;49182;50.788;7.318;2022-12-18T10:31:14;102022.81;;;-4.67;86.86
43125;BME280;49182;50.788;7.318;2022-12-18T10:33:42;102020.97;;;-4.21;83.96
43125;BME280;49182;50.788;7.318;2022-12-18T10:36:09;102017.34;;;-3.88;82.26
43125;BME280;49182;50.788;7.318;2022-12-18T10:38:36;102012.91;;;-3.68;81.39
43125;BME280;49182;50.788;7.318;2022-12-18T10:41:05;102010.16;;;-3.43;80.20
43125;BME280;49182;50.788;7.318;2022-12-18T10:43:34;102011.63;;;-3.12;78.13
43125;BME280;49182;50.788;7.318;2022-12-18T10:46:12;102007.19;;;-2.99;76.68
43125;BME280;49182;50.788;7.318;2022-12-18T10:48:48;102006.03;;;-2.71;75.47
43125;BME280;49182;50.788;7.318;2022-12-18T10:51:20;101996.41;;;-2.57;74.46
43125;BME280;49182;50.788;7.318;2022-12-18T10:53:54;102004.03;;;-2.45;74.50
43125;BME280;49182;50.788;7.318;2022-12-18T10:56:22;102002.13;;;-2.29;72.79
43125;BME280;49182;50.788;7.318;2022-12-18T10:58:56;102011.41;;;-2.16;72.73
43125;BME280;49182;50.788;7.318;2022-12-18T11:01:25;101998.47;;;-2.13;73.23
43125;BME280;49182;50.788;7.318;2022-12-18T11:04:00;102003.38;;;-1.93;71.33
43125;BME280;49182;50.788;7.318;2022-12-18T11:06:29;101995.66;;;-1.97;71.28
43125;BME280;49182;50.788;7.318;2022-12-18T11:09:00;101994.69;;;-1.89;71.07
43125;BME280;49182;50.788;7.318;2022-12-18T11:11:28;102004.97;;;-1.84;71.46
43125;BME280;49182;50.788;7.318;2022-12-18T11:14:01;101984.06;;;-1.72;70.45
43125;BME280;49182;50.788;7.318;2022-12-18T11:16:33;101994.50;;;-1.75;71.20
43125;BME280;49182;50.788;7.318;2022-12-18T11:19:17;101996.03;;;-1.64;69.73
43125;BME280;49182;50.788;7.318;2022-12-18T11:21:46;101967.53;;;-1.62;68.99
43125;BME280;49182;50.788;7.318;2022-12-18T11:24:20;101986.38;;;-1.54;69.43
43125;BME280;49182;50.788;7.318;2022-12-18T11:26:48;101990.69;;;-1.53;70.04
43125;BME280;49182;50.788;7.318;2022-12-18T11:29:26;101988.88;;;-1.48;69.41
43125;BME280;49182;50.788;7.318;2022-12-18T11:32:30;101991.25;;;-1.36;69.11
43125;BME280;49182;50.788;7.318;2022-12-18T11:35:03;101991.25;;;-1.36;68.86
43125;BME280;49182;50.788;7.318;2022-12-18T11:37:31;101992.09;;;-1.32;68.22
43125;BME280;49182;50.788;7.318;2022-12-18T11:40:03;101972.03;;;-1.21;66.84
43125;BME280;49182;50.788;7.318;2022-12-18T11:42:36;102000.84;;;-1.39;67.56
43125;BME280;49182;50.788;7.318;2022-12-18T11:45:20;101988.09;;;-1.53;69.09
43125;BME280;49182;50.788;7.318;2022-12-18T11:47:56;101921.09;;;-1.73;68.05
43125;BME280;49182;50.788;7.318;2022-12-18T11:50:25;101971.28;;;-1.29;67.66
43125;BME280;49182;50.788;7.318;2022-12-18T11:52:53;101956.72;;;-1.35;67.33
43125;BME280;49182;50.788;7.318;2022-12-18T11:55:32;101986.00;;;-1.30;67.36
43125;BME280;49182;50.788;7.318;2022-12-18T11:58:09;101980.09;;;-1.36;67.42
43125;BME280;49182;50.788;7.318;2022-12-18T12:00:43;101964.50;;;-1.35;67.92
43125;BME280;49182;50.788;7.318;2022-12-18T12:03:24;101971.59;;;-1.47;67.60
43125;BME280;49182;50.788;7.318;2022-12-18T12:06:05;101966.41;;;-1.46;67.89
43125;BME280;49182;50.788;7.318;2022-12-18T12:08:43;101941.69;;;-1.65;68.19
43125;BME280;49182;50.788;7.318;2022-12-18T12:11:18;101958.91;;;-1.61;69.01
43125;BME280;49182;50.788;7.318;2022-12-18T12:13:54;101948.44;;;-1.55;68.97
43125;BME280;49182;50.788;7.318;2022-12-18T12:16:29;101955.38;;;-1.57;68.98
43125;BME280;49182;50.788;7.318;2022-12-18T12:19:12;101956.31;;;-1.61;69.75
43125;BME280;49182;50.788;7.318;2022-12-18T12:21:43;101957.97;;;-1.57;68.24
43125;BME280;49182;50.788;7.318;2022-12-18T12:24:27;101962.25;;;-1.56;68.53
43125;BME280;49182;50.788;7.318;2022-12-18T12:27:04;101961.53;;;-1.64;68.96
43125;BME280;49182;50.788;7.318;2022-12-18T12:29:45;101940.06;;;-1.71;69.74
43125;BME280;49182;50.788;7.318;2022-12-18T12:32:22;101955.47;;;-1.63;68.48
43125;BME280;49182;50.788;7.318;2022-12-18T12:35:07;101950.19;;;-1.57;68.54
43125;BME280;49182;50.788;7.318;2022-12-18T12:37:45;101952.13;;;-1.71;69.49
43125;BME280;49182;50.788;7.318;2022-12-18T12:40:24;101939.25;;;-1.74;70.13
43125;BME280;49182;50.788;7.318;2022-12-18T12:43:22;101918.75;;;-1.86;69.29
43125;BME280;49182;50.788;7.318;2022-12-18T12:45:54;101938.25;;;-1.66;69.76
43125;BME280;49182;50.788;7.318;2022-12-18T12:48:34;101942.59;;;-1.68;69.79
43125;BME280;49182;50.788;7.318;2022-12-18T12:51:10;101941.94;;;-1.80;69.87
43125;BME280;49182;50.788;7.318;2022-12-18T12:53:39;101940.06;;;-1.71;69.32
43125;BME280;49182;50.788;7.318;2022-12-18T12:56:10;101935.06;;;-1.83;70.40
43125;BME280;49182;50.788;7.318;2022-12-18T12:58:44;101908.53;;;-1.97;69.93